Time;durP1;ratioP1;P1;durP2;ratioP2;P2;SDS_P1;SDS_P2;PMS_P1;PMS_P2;Temp;Humidity;BMP_temperature;BMP_pressure;BME280_temperature;BME280_humidity;BME280_pressure;Samples;Min_cycle;Max_cycle;Signal;HPM_P1;HPM_P2
2023/06/07 00:02:13;;;;;;;24.02;17.52;;;;;;;;;;5038867;28;20045;-81
2023/06/07 00:04:55;;;;;;;25.23;15.33;;;;;;;;;;5036673;28;20053;-82
2023/06/07 00:07:22;;;;;;;17.77;12.82;;;;;;;;;;5020491;28;20048;-81
2023/06/07 00:09:49;;;;;;;18.75;11.52;;;;;;;;;;5036971;28;20044;-82
2023/06/07 00:12:16;;;;;;;22.70;12.60;;;;;;;;;;5017459;28;20402;-81
2023/06/07 00:14:46;;;;;;;26.45;12.07;;;;;;;;;;5016824;28;20041;-85
2023/06/07 00:17:15;;;;;;;17.15;11.73;;;;;;;;;;5006832;28;20072;-83
2023/06/07 00:19:43;;;;;;;17.92;13.18;;;;;;;;;;5034438;28;20044;-83
2023/06/07 00:22:12;;;;;;;17.98;12.80;;;;;;;;;;5033517;28;20037;-82
2023/06/07 00:24:39;;;;;;;22.38;13.23;;;;;;;;;;5014288;28;20121;-83
2023/06/07 00:27:06;;;;;;;19.00;13.35;;;;;;;;;;5014585;28;20072;-83
2023/06/07 00:29:32;;;;;;;19.30;13.52;;;;;;;;;;5031868;28;20048;-82
2023/06/07 00:31:59;;;;;;;21.77;13.98;;;;;;;;;;5016387;28;20448;-84
2023/06/07 00:34:26;;;;;;;22.23;13.45;;;;;;;;;;5032134;28;20484;-82
2023/06/07 00:36:52;;;;;;;22.88;14.05;;;;;;;;;;4999130;28;20057;-82
2023/06/07 00:39:19;;;;;;;18.08;12.57;;;;;;;;;;5015427;28;20049;-84
2023/06/07 00:41:48;;;;;;;20.58;12.75;;;;;;;;;;5014260;28;20041;-84
2023/06/07 00:44:16;;;;;;;21.15;13.73;;;;;;;;;;5016179;28;20125;-82
2023/06/07 00:46:48;;;;;;;22.50;13.23;;;;;;;;;;5018478;28;20061;-82
2023/06/07 00:49:18;;;;;;;21.60;13.13;;;;;;;;;;5016028;28;20045;-80
2023/06/07 00:51:47;;;;;;;17.58;12.20;;;;;;;;;;5004496;28;20061;-80
2023/06/07 00:54:17;;;;;;;20.50;12.95;;;;;;;;;;5022203;28;20045;-84
2023/06/07 00:56:50;;;;;;;20.33;11.88;;;;;;;;;;5018229;28;20052;-82
2023/06/07 00:59:20;;;;;;;18.48;12.75;;;;;;;;;;5002734;28;20068;-82
2023/06/07 01:01:51;;;;;;;19.95;12.80;;;;;;;;;;5021254;28;20056;-84
2023/06/07 01:04:39;;;;;;;17.45;12.55;;;;;;;;;;5011885;28;20057;-83
2023/06/07 01:07:37;;;;;;;18.33;12.82;;;;;;;;;;4979126;28;20053;-83
2023/06/07 01:10:57;;;;;;;21.02;11.75;;;;;;;;;;4959775;28;20648;-84
2023/06/07 01:14:18;;;;;;;18.60;12.00;;;;;;;;;;4987633;28;20164;-84
2023/06/07 01:17:24;;;;;;;18.77;11.50;;;;;;;;;;4962369;28;20039;-85
2023/06/07 01:20:39;;;;;;;25.08;11.63;;;;;;;;;;4944203;28;20599;-84
2023/06/07 01:28:20;;;;;;;;;;;;;;;;;;;;;
2023/06/07 01:32:13;;;;;;;18.50;10.80;;;;;;;;;;4841488;29;20056;-84
2023/06/07 01:43:21;;;;;;;;;;;;;;;;;;;;;
2023/06/07 01:47:07;;;;;;;;;;;;;;;;;;;;;
2023/06/07 01:50:02;;;;;;;19.83;11.80;;;;;;;;;;5099549;27;20413;-83
2023/06/07 01:52:30;;;;;;;18.83;11.82;;;;;;;;;;5105288;28;20036;-80
2023/06/07 01:54:58;;;;;;;17.15;12.10;;;;;;;;;;5112392;28;20051;-82
2023/06/07 01:57:25;;;;;;;16.08;12.10;;;;;;;;;;5112263;28;20043;-80
2023/06/07 02:00:09;;;;;;;17.65;12.30;;;;;;;;;;5093561;28;20076;-80
2023/06/07 02:02:41;;;;;;;16.98;12.18;;;;;;;;;;5092783;28;20041;-81
2023/06/07 02:05:31;;;;;;;22.05;13.68;;;;;;;;;;5094565;28;20044;-82
2023/06/07 02:08:01;;;;;;;19.20;13.32;;;;;;;;;;5091435;28;20040;-81
2023/06/07 02:10:32;;;;;;;18.75;13.18;;;;;;;;;;5089284;28;20051;-80
2023/06/07 02:13:00;;;;;;;20.67;12.75;;;;;;;;;;5091822;28;20044;-79
2023/06/07 02:15:26;;;;;;;18.30;12.35;;;;;;;;;;5090774;28;20059;-81
2023/06/07 02:17:57;;;;;;;19.33;13.07;;;;;;;;;;5090637;28;20060;-81
2023/06/07 02:20:26;;;;;;;18.27;13.13;;;;;;;;;;5072349;28;20066;-81
2023/06/07 02:22:53;;;;;;;19.05;12.95;;;;;;;;;;5087517;28;20059;-79
2023/06/07 02:25:20;;;;;;;21.10;13.13;;;;;;;;;;5090007;28;20044;-81
2023/06/07 02:27:47;;;;;;;22.65;14.00;;;;;;;;;;5072638;28;20131;-82
2023/06/07 02:30:20;;;;;;;19.42;12.88;;;;;;;;;;5081944;28;20041;-80
2023/06/07 02:32:53;;;;;;;18.00;12.82;;;;;;;;;;5076919;28;20124;-80
2023/06/07 02:35:21;;;;;;;18.77;13.57;;;;;;;;;;5065080;28;20044;-79
2023/06/07 02:37:48;;;;;;;21.02;13.13;;;;;;;;;;5084768;28;20141;-81
2023/06/07 02:40:15;;;;;;;17.90;13.23;;;;;;;;;;5082930;28;20115;-81
2023/06/07 02:42:43;;;;;;;20.02;13.48;;;;;;;;;;5083716;28;20029;-81
2023/06/07 02:45:10;;;;;;;19.85;12.98;;;;;;;;;;5084694;28;20045;-81
2023/06/07 02:47:37;;;;;;;19.10;13.20;;;;;;;;;;5085129;28;20047;-81
2023/06/07 02:50:03;;;;;;;18.52;13.60;;;;;;;;;;5084899;28;20044;-81
2023/06/07 02:52:30;;;;;;;24.30;14.45;;;;;;;;;;5098373;28;20044;-81
2023/06/07 02:54:57;;;;;;;25.00;14.30;;;;;;;;;;5106727;28;20110;-80
2023/06/07 02:57:24;;;;;;;21.17;14.85;;;;;;;;;;5089724;28;20059;-79
2023/06/07 02:59:52;;;;;;;22.50;15.35;;;;;;;;;;5043194;28;20455;-82
2023/06/07 03:02:23;;;;;;;19.55;14.38;;;;;;;;;;5052668;28;20041;-81
2023/06/07 03:04:52;;;;;;;19.48;13.63;;;;;;;;;;5052156;28;20144;-80
2023/06/07 03:07:20;;;;;;;21.17;14.77;;;;;;;;;;5053897;28;20139;-81
2023/06/07 03:09:47;;;;;;;25.40;16.67;;;;;;;;;;5055736;28;20074;-79
2023/06/07 03:12:17;;;;;;;21.58;15.30;;;;;;;;;;5056649;28;20075;-81
2023/06/07 03:14:49;;;;;;;26.27;15.40;;;;;;;;;;5054262;28;20041;-81
2023/06/07 03:17:17;;;;;;;24.35;15.45;;;;;;;;;;5068578;28;20044;-82
2023/06/07 03:19:49;;;;;;;23.13;14.85;;;;;;;;;;5056405;28;20590;-82
2023/06/07 03:22:17;;;;;;;32.15;17.13;;;;;;;;;;5054149;28;20060;-82
2023/06/07 03:24:51;;;;;;;20.65;16.27;;;;;;;;;;5052413;28;20622;-80
2023/06/07 03:27:23;;;;;;;24.00;16.95;;;;;;;;;;5052038;28;20107;-81
2023/06/07 03:29:56;;;;;;;24.38;17.77;;;;;;;;;;5036760;28;20151;-80
2023/06/07 03:32:23;;;;;;;24.85;17.35;;;;;;;;;;5052838;28;20040;-82
2023/06/07 03:34:51;;;;;;;24.13;16.75;;;;;;;;;;5054314;28;20135;-82
2023/06/07 03:37:18;;;;;;;23.45;18.05;;;;;;;;;;5058334;28;20041;-82
2023/06/07 03:39:45;;;;;;;30.05;19.35;;;;;;;;;;5065168;28;20048;-80
2023/06/07 03:42:11;;;;;;;24.33;18.50;;;;;;;;;;5063034;28;20060;-80
2023/06/07 03:44:40;;;;;;;27.27;19.40;;;;;;;;;;5063039;28;20133;-80
2023/06/07 03:47:09;;;;;;;32.63;19.90;;;;;;;;;;5068561;28;20049;-80
2023/06/07 03:49:36;;;;;;;26.73;19.55;;;;;;;;;;5069041;28;20044;-79
2023/06/07 03:52:04;;;;;;;25.83;18.35;;;;;;;;;;5051841;28;20043;-81
2023/06/07 03:54:32;;;;;;;29.02;19.52;;;;;;;;;;5068496;28;20052;-81
2023/06/07 03:57:00;;;;;;;23.35;17.75;;;;;;;;;;5078413;28;20040;-79
2023/06/07 03:59:29;;;;;;;32.33;20.73;;;;;;;;;;5087405;28;20052;-79
2023/06/07 04:01:58;;;;;;;28.70;20.15;;;;;;;;;;5083582;28;20054;-78
2023/06/07 04:04:27;;;;;;;26.70;19.92;;;;;;;;;;5072867;28;20378;-82
2023/06/07 04:06:57;;;;;;;25.85;19.52;;;;;;;;;;5070635;28;20048;-80
2023/06/07 04:09:24;;;;;;;27.73;18.65;;;;;;;;;;5071329;28;20044;-81
2023/06/07 04:11:51;;;;;;;30.23;19.23;;;;;;;;;;5071218;28;20036;-80
2023/06/07 04:14:18;;;;;;;29.45;18.95;;;;;;;;;;5073520;28;20041;-81
2023/06/07 04:16:45;;;;;;;22.63;17.70;;;;;;;;;;5056273;28;20119;-80
2023/06/07 04:19:13;;;;;;;31.35;17.83;;;;;;;;;;5065873;28;20086;-80
2023/06/07 04:21:44;;;;;;;22.65;17.73;;;;;;;;;;5069061;28;20036;-81
2023/06/07 04:24:12;;;;;;;25.42;18.02;;;;;;;;;;5071793;28;20044;-81
2023/06/07 04:26:42;;;;;;;26.08;17.30;;;;;;;;;;5054547;28;20044;-81
2023/06/07 04:29:09;;;;;;;24.08;17.10;;;;;;;;;;5055334;28;20040;-81
2023/06/07 04:31:41;;;;;;;23.40;17.80;;;;;;;;;;5070687;28;20059;-81
2023/06/07 04:34:17;;;;;;;26.48;17.85;;;;;;;;;;5068960;28;20041;-81
2023/06/07 04:36:49;;;;;;;24.88;18.52;;;;;;;;;;5069841;28;20052;-81
2023/06/07 04:39:18;;;;;;;31.70;20.45;;;;;;;;;;5069197;28;20045;-82
2023/06/07 04:41:46;;;;;;;30.45;20.67;;;;;;;;;;5068791;28;20093;-80
2023/06/07 04:44:27;;;;;;;28.65;20.95;;;;;;;;;;5052356;28;20692;-82
2023/06/07 04:47:01;;;;;;;26.42;19.85;;;;;;;;;;5067930;28;20493;-84
2023/06/07 04:49:38;;;;;;;28.85;19.92;;;;;;;;;;5067415;28;20040;-85
2023/06/07 04:52:05;;;;;;;30.13;20.20;;;;;;;;;;5051860;28;20048;-84
2023/06/07 04:54:36;;;;;;;29.30;20.48;;;;;;;;;;5068497;28;20040;-83
2023/06/07 04:57:08;;;;;;;30.15;20.25;;;;;;;;;;5090201;28;20110;-83
2023/06/07 04:59:42;;;;;;;28.02;19.38;;;;;;;;;;5065256;28;20090;-83
2023/06/07 05:02:15;;;;;;;26.38;20.60;;;;;;;;;;5074723;28;20024;-81
2023/06/07 05:04:42;;;;;;;25.67;19.52;;;;;;;;;;5080920;28;20037;-80
2023/06/07 05:07:11;;;;;;;33.03;22.65;;;;;;;;;;5082314;28;20044;-80
2023/06/07 05:09:39;;;;;;;33.17;21.08;;;;;;;;;;5070933;28;20170;-80
2023/06/07 05:12:09;;;;;;;31.60;21.15;;;;;;;;;;5050112;28;20054;-80
2023/06/07 05:14:36;;;;;;;33.72;20.20;;;;;;;;;;5065310;28;20454;-81
2023/06/07 05:17:07;;;;;;;27.25;18.55;;;;;;;;;;5066258;28;20057;-82
2023/06/07 05:19:34;;;;;;;27.00;18.92;;;;;;;;;;5047580;28;20045;-81
2023/06/07 05:22:02;;;;;;;28.10;18.30;;;;;;;;;;5069366;28;20060;-80
2023/06/07 05:24:31;;;;;;;24.17;17.92;;;;;;;;;;5067668;28;20060;-81
2023/06/07 05:26:57;;;;;;;28.75;19.55;;;;;;;;;;5068971;28;20055;-81
2023/06/07 05:29:25;;;;;;;29.27;19.98;;;;;;;;;;5066994;28;20109;-81
2023/06/07 05:31:52;;;;;;;27.60;20.55;;;;;;;;;;5066916;28;20110;-81
2023/06/07 05:34:18;;;;;;;34.05;21.30;;;;;;;;;;5052189;28;20041;-80
2023/06/07 05:36:45;;;;;;;30.20;20.95;;;;;;;;;;5069309;28;20037;-81
2023/06/07 05:39:15;;;;;;;32.30;20.73;;;;;;;;;;5052624;28;20051;-80
2023/06/07 05:41:43;;;;;;;29.23;20.77;;;;;;;;;;5068452;28;20505;-81
2023/06/07 05:44:12;;;;;;;35.47;24.08;;;;;;;;;;5069668;28;20055;-81
2023/06/07 05:46:39;;;;;;;34.10;23.63;;;;;;;;;;5070106;28;20076;-80
2023/06/07 05:49:07;;;;;;;39.90;26.20;;;;;;;;;;5069669;28;20415;-81
2023/06/07 05:51:34;;;;;;;44.30;26.95;;;;;;;;;;5066129;28;20570;-80
2023/06/07 05:54:01;;;;;;;40.90;27.58;;;;;;;;;;5065415;28;20044;-80
2023/06/07 05:56:28;;;;;;;40.78;27.38;;;;;;;;;;5064327;28;20082;-80
2023/06/07 05:58:54;;;;;;;39.65;27.77;;;;;;;;;;5045688;28;20354;-81
2023/06/07 06:01:21;;;;;;;39.45;26.52;;;;;;;;;;5066272;28;20066;-80
2023/06/07 06:03:48;;;;;;;42.83;27.23;;;;;;;;;;5069509;28;20199;-81
2023/06/07 06:06:41;;;;;;;37.45;25.15;;;;;;;;;;5067267;28;20266;-82
2023/06/07 06:09:07;;;;;;;44.53;29.48;;;;;;;;;;5065832;28;20067;-80
2023/06/07 06:11:34;;;;;;;45.10;29.27;;;;;;;;;;5066709;28;20048;-80
2023/06/07 06:14:01;;;;;;;46.78;30.80;;;;;;;;;;5068632;28;20049;-81
2023/06/07 06:16:27;;;;;;;52.70;30.50;;;;;;;;;;5069466;28;20040;-81
2023/06/07 06:18:57;;;;;;;52.28;31.92;;;;;;;;;;5066591;28;20047;-81
2023/06/07 06:21:23;;;;;;;49.97;30.33;;;;;;;;;;5068915;28;20048;-81
2023/06/07 06:23:50;;;;;;;44.50;30.40;;;;;;;;;;5074933;28;20098;-81
2023/06/07 06:26:21;;;;;;;41.63;27.67;;;;;;;;;;5073452;28;20045;-81
2023/06/07 06:28:48;;;;;;;43.47;29.17;;;;;;;;;;5074540;28;20039;-81
2023/06/07 06:31:14;;;;;;;46.63;28.80;;;;;;;;;;5075839;28;20426;-80
2023/06/07 06:33:41;;;;;;;37.05;24.80;;;;;;;;;;5073236;28;20400;-80
2023/06/07 06:36:08;;;;;;;33.95;23.60;;;;;;;;;;5073983;28;20068;-81
2023/06/07 06:38:34;;;;;;;31.42;21.90;;;;;;;;;;5073638;28;20049;-80
2023/06/07 06:41:01;;;;;;;35.55;22.30;;;;;;;;;;5076198;28;20047;-81
2023/06/07 06:43:28;;;;;;;29.75;20.95;;;;;;;;;;5073229;28;20049;-83
2023/06/07 06:45:58;;;;;;;31.30;20.92;;;;;;;;;;5067771;28;20037;-82
2023/06/07 06:48:25;;;;;;;29.92;20.23;;;;;;;;;;5052239;28;20120;-80
2023/06/07 06:50:52;;;;;;;31.45;20.05;;;;;;;;;;5066007;28;20179;-80
2023/06/07 06:53:19;;;;;;;29.27;20.05;;;;;;;;;;5051869;28;20049;-81
2023/06/07 06:55:45;;;;;;;34.03;20.27;;;;;;;;;;5053718;28;20052;-81
2023/06/07 06:58:13;;;;;;;24.00;17.88;;;;;;;;;;5067830;28;20048;-81
2023/06/07 07:00:40;;;;;;;27.45;19.42;;;;;;;;;;5047957;28;20036;-79
2023/06/07 07:03:07;;;;;;;27.73;19.83;;;;;;;;;;5051374;28;20088;-81
2023/06/07 07:05:34;;;;;;;30.98;19.52;;;;;;;;;;5049524;28;20045;-81
2023/06/07 07:08:02;;;;;;;27.88;19.08;;;;;;;;;;5051854;28;20045;-81
2023/06/07 07:10:29;;;;;;;27.27;17.95;;;;;;;;;;5031665;28;20049;-81
2023/06/07 07:12:55;;;;;;;28.50;18.15;;;;;;;;;;5049819;28;20449;-81
2023/06/07 07:15:22;;;;;;;29.17;19.08;;;;;;;;;;5048922;28;20103;-81
2023/06/07 07:17:49;;;;;;;25.35;17.83;;;;;;;;;;5051429;28;20590;-81
2023/06/07 07:20:17;;;;;;;23.45;17.42;;;;;;;;;;5050255;28;20052;-78
2023/06/07 07:22:45;;;;;;;27.05;17.35;;;;;;;;;;5067310;28;20048;-80
2023/06/07 07:25:13;;;;;;;21.27;15.40;;;;;;;;;;5054590;28;20219;-81
2023/06/07 07:27:39;;;;;;;26.85;16.50;;;;;;;;;;5049885;28;20068;-80
2023/06/07 07:30:07;;;;;;;24.25;16.83;;;;;;;;;;5047259;28;20502;-81
2023/06/07 07:32:33;;;;;;;22.58;15.60;;;;;;;;;;5050727;28;20052;-79
2023/06/07 07:35:00;;;;;;;25.13;15.55;;;;;;;;;;5051736;28;20096;-81
2023/06/07 07:37:28;;;;;;;23.27;15.15;;;;;;;;;;5051706;28;20051;-79
2023/06/07 07:39:55;;;;;;;23.55;14.52;;;;;;;;;;5049425;28;20092;-81
2023/06/07 07:42:21;;;;;;;23.30;14.40;;;;;;;;;;5050030;28;21079;-80
2023/06/07 07:44:48;;;;;;;23.13;14.32;;;;;;;;;;5049239;28;20132;-81
2023/06/07 07:47:14;;;;;;;19.30;14.13;;;;;;;;;;5051499;28;20651;-81
2023/06/07 07:49:41;;;;;;;21.50;14.07;;;;;;;;;;5051450;28;20521;-81
2023/06/07 07:52:07;;;;;;;19.42;12.95;;;;;;;;;;5033848;28;20268;-81
2023/06/07 07:54:35;;;;;;;21.55;12.73;;;;;;;;;;5050587;28;20045;-80
2023/06/07 07:57:01;;;;;;;18.90;12.23;;;;;;;;;;5062226;28;20048;-80
2023/06/07 07:59:28;;;;;;;22.33;12.23;;;;;;;;;;5055041;28;20041;-80
2023/06/07 08:01:55;;;;;;;17.60;11.43;;;;;;;;;;5049235;28;20106;-79
2023/06/07 08:04:22;;;;;;;18.27;11.35;;;;;;;;;;5050351;28;20044;-82
2023/06/07 08:06:49;;;;;;;16.90;11.23;;;;;;;;;;5050635;28;20125;-81
2023/06/07 08:09:15;;;;;;;16.33;10.95;;;;;;;;;;5049642;28;20091;-82
2023/06/07 08:11:42;;;;;;;16.15;10.55;;;;;;;;;;5049618;28;20509;-79
2023/06/07 08:14:08;;;;;;;14.35;10.23;;;;;;;;;;5050744;28;20236;-81
2023/06/07 08:16:59;;;;;;;14.05;9.80;;;;;;;;;;5049952;28;20486;-80
2023/06/07 08:19:27;;;;;;;15.27;10.13;;;;;;;;;;5049235;28;20075;-81
2023/06/07 08:21:54;;;;;;;13.23;9.82;;;;;;;;;;5049563;28;20165;-81
2023/06/07 08:24:21;;;;;;;14.23;10.00;;;;;;;;;;5050547;28;20124;-82
2023/06/07 08:26:49;;;;;;;13.80;9.52;;;;;;;;;;5050502;28;20043;-81
2023/06/07 08:29:15;;;;;;;15.05;9.68;;;;;;;;;;5050073;28;20045;-81
2023/06/07 08:31:43;;;;;;;15.70;9.77;;;;;;;;;;5046211;28;20037;-81
2023/06/07 08:34:10;;;;;;;15.05;10.25;;;;;;;;;;5050780;28;20041;-81
2023/06/07 08:36:38;;;;;;;13.68;9.65;;;;;;;;;;5048971;28;20059;-80
2023/06/07 08:39:04;;;;;;;13.95;10.07;;;;;;;;;;5050970;28;20064;-81
2023/06/07 08:41:31;;;;;;;17.63;10.93;;;;;;;;;;5048882;28;20130;-80
2023/06/07 08:43:58;;;;;;;15.07;10.20;;;;;;;;;;5049717;28;20508;-80
2023/06/07 08:46:25;;;;;;;15.13;10.30;;;;;;;;;;5049323;28;20053;-80
2023/06/07 08:48:53;;;;;;;15.15;10.25;;;;;;;;;;5048850;28;20047;-82
2023/06/07 08:51:21;;;;;;;15.05;10.38;;;;;;;;;;5046817;28;20114;-80
2023/06/07 08:53:51;;;;;;;14.73;10.45;;;;;;;;;;5050654;28;20087;-80
2023/06/07 08:56:18;;;;;;;16.50;10.88;;;;;;;;;;5055992;28;20098;-81
2023/06/07 08:58:46;;;;;;;14.65;9.95;;;;;;;;;;5060920;28;20041;-81
2023/06/07 09:01:17;;;;;;;19.90;10.45;;;;;;;;;;5048841;28;20706;-81
2023/06/07 09:03:51;;;;;;;16.13;10.18;;;;;;;;;;5050463;28;20131;-81
2023/06/07 09:06:18;;;;;;;14.88;9.85;;;;;;;;;;5049028;28;20068;-80
2023/06/07 09:08:45;;;;;;;14.85;9.57;;;;;;;;;;5051193;28;20044;-82
2023/06/07 09:11:12;;;;;;;14.80;10.20;;;;;;;;;;5047698;28;20059;-83
2023/06/07 09:13:39;;;;;;;16.50;9.88;;;;;;;;;;5049582;28;20044;-81
2023/06/07 09:16:06;;;;;;;14.07;9.93;;;;;;;;;;5047160;28;20052;-79
2023/06/07 09:18:42;;;;;;;17.70;9.77;;;;;;;;;;5049298;28;20044;-81
2023/06/07 09:21:20;;;;;;;13.23;9.93;;;;;;;;;;5048927;28;20404;-81
2023/06/07 09:23:46;;;;;;;16.00;10.43;;;;;;;;;;5049198;28;20059;-81
2023/06/07 09:26:14;;;;;;;12.38;8.75;;;;;;;;;;5048064;28;20056;-81
2023/06/07 09:28:40;;;;;;;15.05;8.95;;;;;;;;;;5048350;28;20467;-81
2023/06/07 09:31:08;;;;;;;18.42;9.30;;;;;;;;;;5045775;28;20045;-80
2023/06/07 09:33:35;;;;;;;11.75;8.15;;;;;;;;;;5051579;28;20048;-83
2023/06/07 09:36:05;;;;;;;13.77;8.32;;;;;;;;;;5069895;28;20089;-82
2023/06/07 09:38:37;;;;;;;13.18;8.50;;;;;;;;;;5059805;28;20094;-81
2023/06/07 09:41:05;;;;;;;13.02;8.13;;;;;;;;;;5047753;28;20047;-81
2023/06/07 09:43:50;;;;;;;14.43;8.77;;;;;;;;;;5048447;28;20047;-80
2023/06/07 09:46:21;;;;;;;12.63;8.82;;;;;;;;;;5047454;28;20107;-82
2023/06/07 09:48:51;;;;;;;13.32;8.82;;;;;;;;;;5049024;28;20071;-82
2023/06/07 09:51:18;;;;;;;13.70;8.23;;;;;;;;;;5048333;28;20060;-81
2023/06/07 09:53:52;;;;;;;11.85;8.45;;;;;;;;;;5049266;28;20068;-80
2023/06/07 09:56:21;;;;;;;13.57;7.18;;;;;;;;;;5036622;28;20040;-81
2023/06/07 09:58:49;;;;;;;9.88;7.63;;;;;;;;;;5061836;28;20037;-82
2023/06/07 10:01:32;;;;;;;13.98;8.52;;;;;;;;;;5052077;28;20041;-82
2023/06/07 10:04:01;;;;;;;10.57;7.70;;;;;;;;;;5034002;28;20080;-81
2023/06/07 10:06:30;;;;;;;13.45;8.63;;;;;;;;;;5053524;28;20057;-81
2023/06/07 10:08:59;;;;;;;11.52;7.57;;;;;;;;;;5051053;28;20049;-83
2023/06/07 10:11:27;;;;;;;13.15;7.53;;;;;;;;;;5052239;28;20045;-80
2023/06/07 10:13:55;;;;;;;10.77;8.10;;;;;;;;;;5054727;28;20045;-81
2023/06/07 10:16:22;;;;;;;12.80;7.78;;;;;;;;;;5051734;28;20079;-80
2023/06/07 10:18:50;;;;;;;15.32;7.07;;;;;;;;;;5054024;28;20063;-81
2023/06/07 10:21:18;;;;;;;14.60;7.90;;;;;;;;;;5052651;28;20056;-79
2023/06/07 10:23:54;;;;;;;16.92;8.35;;;;;;;;;;5058079;28;20045;-80
2023/06/07 10:26:21;;;;;;;;;;;;;;;;;;5051332;28;20048;-82
2023/06/07 10:28:58;;;;;;;13.23;7.40;;;;;;;;;;5050848;28;19921;-80
2023/06/07 10:31:27;;;;;;;12.27;8.48;;;;;;;;;;5046271;28;20102;-82
2023/06/07 10:33:55;;;;;;;10.65;7.93;;;;;;;;;;5054147;28;20114;-80
2023/06/07 10:36:25;;;;;;;14.38;9.45;;;;;;;;;;5052171;28;20041;-80
2023/06/07 10:38:53;;;;;;;11.70;9.02;;;;;;;;;;5055963;28;20459;-80
2023/06/07 10:41:21;;;;;;;12.95;8.93;;;;;;;;;;5057512;28;20144;-81
2023/06/07 10:43:47;;;;;;;12.15;9.38;;;;;;;;;;5036838;28;20299;-79
2023/06/07 10:46:20;;;;;;;13.15;9.50;;;;;;;;;;5054157;28;20107;-79
2023/06/07 10:48:47;;;;;;;15.23;8.60;;;;;;;;;;5053139;28;20041;-80
2023/06/07 10:51:15;;;;;;;11.80;8.75;;;;;;;;;;5053694;28;20041;-81
2023/06/07 10:53:55;;;;;;;12.90;9.23;;;;;;;;;;5054833;28;20110;-81
2023/06/07 10:56:26;;;;;;;12.50;9.80;;;;;;;;;;5042623;28;20051;-80
2023/06/07 10:58:53;;;;;;;14.35;10.15;;;;;;;;;;5075955;28;20122;-81
2023/06/07 11:01:24;;;;;;;13.88;10.48;;;;;;;;;;5074118;28;20044;-82
2023/06/07 11:03:52;;;;;;;14.02;9.30;;;;;;;;;;5056769;28;20068;-78
2023/06/07 11:06:20;;;;;;;11.98;9.18;;;;;;;;;;5074030;28;20058;-80
2023/06/07 11:08:47;;;;;;;18.05;9.45;;;;;;;;;;5075134;28;20532;-80
2023/06/07 11:11:32;;;;;;;13.35;10.20;;;;;;;;;;5055197;28;20048;-80
2023/06/07 11:14:00;;;;;;;15.85;10.45;;;;;;;;;;5075472;28;20068;-81
2023/06/07 11:16:31;;;;;;;13.70;10.32;;;;;;;;;;5072183;28;20072;-80
2023/06/07 11:19:03;;;;;;;15.25;9.05;;;;;;;;;;5073827;28;20102;-80
2023/06/07 11:21:50;;;;;;;13.60;9.15;;;;;;;;;;5071700;28;20127;-80
2023/06/07 11:24:18;;;;;;;16.55;11.40;;;;;;;;;;5073078;28;20044;-80
2023/06/07 11:26:45;;;;;;;15.98;10.43;;;;;;;;;;5071628;28;20201;-81
2023/06/07 11:29:13;;;;;;;14.00;10.95;;;;;;;;;;5071001;28;20064;-82
2023/06/07 11:31:40;;;;;;;22.13;12.13;;;;;;;;;;5072861;28;20056;-80
2023/06/07 11:34:12;;;;;;;22.92;13.70;;;;;;;;;;5072536;28;20056;-81
2023/06/07 11:36:39;;;;;;;16.95;13.60;;;;;;;;;;5078198;28;20067;-81
2023/06/07 11:39:08;;;;;;;19.50;14.05;;;;;;;;;;5077422;28;20170;-81
2023/06/07 11:41:35;;;;;;;23.25;13.50;;;;;;;;;;5079701;28;20036;-82
2023/06/07 11:44:01;;;;;;;21.00;13.93;;;;;;;;;;5085016;28;20535;-81
2023/06/07 11:46:32;;;;;;;21.27;14.68;;;;;;;;;;5083709;28;20052;-81
2023/06/07 11:49:12;;;;;;;20.95;15.27;;;;;;;;;;5087270;28;20064;-80
2023/06/07 11:51:39;;;;;;;23.33;15.73;;;;;;;;;;5089600;28;20067;-82
2023/06/07 11:54:06;;;;;;;20.38;15.75;;;;;;;;;;5093386;28;20055;-83
2023/06/07 11:56:36;;;;;;;24.08;15.90;;;;;;;;;;5092787;28;20040;-82
2023/06/07 11:59:04;;;;;;;23.30;15.90;;;;;;;;;;5092910;28;20048;-82
2023/06/07 12:01:33;;;;;;;22.92;15.88;;;;;;;;;;5095943;22;20053;-84
2023/06/07 12:04:04;;;;;;;23.77;15.20;;;;;;;;;;5002478;28;20048;-83
2023/06/07 12:06:32;;;;;;;20.98;16.05;;;;;;;;;;5037900;28;20092;-83
2023/06/07 12:09:02;;;;;;;23.50;17.10;;;;;;;;;;5033361;28;20049;-83
2023/06/07 12:11:34;;;;;;;24.20;17.75;;;;;;;;;;5039361;28;20052;-84
2023/06/07 12:14:09;;;;;;;23.65;17.05;;;;;;;;;;5020682;28;20048;-83
2023/06/07 12:16:38;;;;;;;25.48;17.63;;;;;;;;;;5032028;28;20045;-83
2023/06/07 12:19:05;;;;;;;23.98;18.35;;;;;;;;;;5035083;28;20077;-82
2023/06/07 12:21:32;;;;;;;26.08;18.65;;;;;;;;;;5035980;28;20041;-82
2023/06/07 12:24:00;;;;;;;23.52;17.70;;;;;;;;;;5020665;28;20053;-84
2023/06/07 12:26:28;;;;;;;26.80;18.58;;;;;;;;;;5041285;28;20494;-84
2023/06/07 12:29:00;;;;;;;26.13;18.20;;;;;;;;;;5050683;28;20055;-83
2023/06/07 12:31:28;;;;;;;27.40;18.10;;;;;;;;;;5042084;28;20071;-84
2023/06/07 12:33:55;;;;;;;31.70;17.70;;;;;;;;;;5050821;28;20463;-83
2023/06/07 12:36:22;;;;;;;27.40;18.88;;;;;;;;;;5050320;28;20049;-83
2023/06/07 12:38:50;;;;;;;25.58;19.58;;;;;;;;;;5048698;28;20036;-81
2023/06/07 12:41:16;;;;;;;26.10;19.95;;;;;;;;;;5051101;28;20041;-83
2023/06/07 12:43:46;;;;;;;27.40;19.20;;;;;;;;;;5053843;28;20049;-82
2023/06/07 12:46:13;;;;;;;27.38;19.63;;;;;;;;;;5054743;28;20045;-83
2023/06/07 12:48:41;;;;;;;31.95;21.38;;;;;;;;;;5031343;28;20052;-81
2023/06/07 12:51:08;;;;;;;31.77;23.88;;;;;;;;;;5055194;28;20052;-82
2023/06/07 12:53:36;;;;;;;32.63;23.33;;;;;;;;;;5054528;28;20036;-84
2023/06/07 12:56:02;;;;;;;33.72;26.73;;;;;;;;;;5054760;28;20075;-83
2023/06/07 12:58:30;;;;;;;31.85;25.33;;;;;;;;;;5048213;28;20067;-82
2023/06/07 13:01:00;;;;;;;37.00;24.17;;;;;;;;;;5051609;28;20060;-82
2023/06/07 13:03:34;;;;;;;33.83;24.70;;;;;;;;;;5070266;28;20029;-85
2023/06/07 13:06:01;;;;;;;32.22;24.38;;;;;;;;;;5070152;28;20104;-83
2023/06/07 13:08:28;;;;;;;36.13;26.10;;;;;;;;;;5069171;28;20047;-84
2023/06/07 13:10:54;;;;;;;32.45;24.33;;;;;;;;;;5069716;28;20033;-85
2023/06/07 13:13:22;;;;;;;31.83;24.02;;;;;;;;;;5070335;28;20087;-85
2023/06/07 13:15:49;;;;;;;30.88;23.35;;;;;;;;;;5070031;28;20051;-85
2023/06/07 13:18:15;;;;;;;31.58;24.08;;;;;;;;;;5068431;28;20048;-83
2023/06/07 13:20:42;;;;;;;25.77;20.58;;;;;;;;;;5063412;28;20041;-82
2023/06/07 13:23:09;;;;;;;29.30;20.83;;;;;;;;;;5048242;28;20084;-81
2023/06/07 13:25:36;;;;;;;26.33;21.35;;;;;;;;;;5044594;28;20102;-83
2023/06/07 13:28:03;;;;;;;28.20;20.63;;;;;;;;;;5043730;28;20060;-82
2023/06/07 13:30:31;;;;;;;26.58;19.35;;;;;;;;;;5033334;28;20045;-83
2023/06/07 13:32:58;;;;;;;24.40;19.40;;;;;;;;;;5024426;28;20063;-81
2023/06/07 13:35:24;;;;;;;24.05;18.27;;;;;;;;;;5033977;28;20138;-84
2023/06/07 13:37:51;;;;;;;23.23;18.15;;;;;;;;;;5036836;28;20046;-83
2023/06/07 13:40:18;;;;;;;25.40;18.75;;;;;;;;;;5037554;28;20049;-84
2023/06/07 13:42:45;;;;;;;26.30;18.73;;;;;;;;;;5042977;28;20071;-82
2023/06/07 13:45:14;;;;;;;27.85;20.02;;;;;;;;;;5049347;28;20045;-81
2023/06/07 13:47:41;;;;;;;25.50;20.98;;;;;;;;;;5040915;28;20453;-81
2023/06/07 13:50:08;;;;;;;27.58;20.25;;;;;;;;;;5049044;28;20048;-81
2023/06/07 13:52:36;;;;;;;25.13;18.38;;;;;;;;;;5042709;28;20049;-84
2023/06/07 13:55:03;;;;;;;25.50;18.88;;;;;;;;;;5051615;28;20052;-85
2023/06/07 13:57:29;;;;;;;22.20;18.63;;;;;;;;;;5049084;28;20044;-83
2023/06/07 13:59:57;;;;;;;23.90;17.75;;;;;;;;;;5030596;28;20037;-83
2023/06/07 14:02:52;;;;;;;25.05;15.70;;;;;;;;;;5044381;28;20048;-84
2023/06/07 14:05:39;;;;;;;18.75;14.15;;;;;;;;;;5055631;28;20045;-83
2023/06/07 14:08:09;;;;;;;21.98;13.45;;;;;;;;;;5060153;28;20529;-83
2023/06/07 14:10:50;;;;;;;14.95;11.75;;;;;;;;;;5035847;28;20042;-83
2023/06/07 14:13:27;;;;;;;15.75;10.95;;;;;;;;;;5045138;28;20048;-83
2023/06/07 14:15:54;;;;;;;13.05;9.25;;;;;;;;;;5027875;28;20056;-82
2023/06/07 14:18:21;;;;;;;14.63;10.40;;;;;;;;;;5026288;28;20045;-85
2023/06/07 14:20:49;;;;;;;13.05;9.88;;;;;;;;;;5026396;28;20140;-82
2023/06/07 14:23:16;;;;;;;13.65;9.98;;;;;;;;;;5012102;28;20083;-82
2023/06/07 14:25:49;;;;;;;11.98;8.50;;;;;;;;;;5021142;28;20048;-83
2023/06/07 14:28:16;;;;;;;14.40;9.20;;;;;;;;;;5019868;28;20046;-81
2023/06/07 14:30:46;;;;;;;14.25;10.25;;;;;;;;;;5005226;28;20061;-82
2023/06/07 14:33:13;;;;;;;15.32;10.73;;;;;;;;;;5031712;28;20148;-81
2023/06/07 14:35:51;;;;;;;14.65;10.55;;;;;;;;;;5015191;28;20107;-82
2023/06/07 14:38:18;;;;;;;;;;;;;;;;;;5027332;28;20063;-82
2023/06/07 14:40:44;;;;;;;19.05;10.35;;;;;;;;;;5026095;28;20382;-80
2023/06/07 14:43:11;;;;;;;18.63;9.27;;;;;;;;;;5027330;28;20379;-82
2023/06/07 14:45:38;;;;;;;17.15;9.95;;;;;;;;;;5043967;28;20076;-82
2023/06/07 14:48:06;;;;;;;16.00;10.13;;;;;;;;;;5035012;28;20152;-81
2023/06/07 14:50:32;;;;;;;14.95;11.15;;;;;;;;;;5040547;28;20109;-82
2023/06/07 14:52:59;;;;;;;18.95;10.77;;;;;;;;;;5032768;28;20046;-82
2023/06/07 14:55:26;;;;;;;13.70;10.38;;;;;;;;;;5042060;28;20069;-81